x

New London Ledge Ct - Ledge Light Weather Station (ldlc3) Weather Station

10:40 - Thu 28th May 2015 All times are EDT. -4 hours from GMT.

  • Wind
    8mph, 9mph gusts
  • Luft Temp 59°f
  • Sea Pressure 1021.9mb
  • New London Ledge Ct - Ledge Light Weather Station
  • New London Ledge Ct - Ledge Light Weather Station

More Historic Weather Station data

Upgrade to MSW Pro to gain access to the past 30 days of data for over 8000 Wavebouys and Weather Stations around the globe.

Join Pro

Comparision Forecast

View Surf forecast
   
Do 05/28 10:40 8 9 mph 1021.9mb 59f
10:25 13 14 mph 1021.8mb 60f
10:10 13 15 mph 1021.8mb 60f
9:55 8 10 mph 1021.8mb 61f
9:40 8 10 mph 1021.9mb 61f
9:25 3 6 mph 1021.9mb 62f
9:10 3 5 mph 1022mb 60f
8:55 7 9 mph 1022.3mb 59f
8:40 5
mph
1022mb 59f
8:25 5 7 mph 1022.1mb 58f
8:10 5 7 mph 1022mb 59f
7:55  -  2 mph 1022mb 59f
7:40 9
mph
1021.7mb 59f
7:25 11
mph
1021.7mb 60f
7:10 13
mph
1021.7mb 60f
6:55 8 9 mph 1021.7mb 57f
6:40 5 6 mph 1021.7mb 57f
6:25 6
mph
1021.4mb 58f
6:10 7
mph
1021.3mb 59f
5:55 5 6 mph 1021.3mb 58f
5:40 1 2 mph 1021mb 58f
5:25  -  2 mph 1021mb 58f
5:10 7 8 mph 1020.8mb 60f
4:55 7 8 mph 1020.8mb 60f
4:40 3 5 mph 1020.8mb 60f
4:25 3 5 mph 1020.8mb 60f
4:10 7 8 mph 1020.7mb 60f
3:55 8
mph
1020.8mb 60f
3:40 6
mph
1020.6mb 60f
3:25 7 8 mph 1020.7mb 60f
3:10 8
mph
1020.6mb 60f
2:55 9 10 mph 1020.6mb 61f
2:40 9 10 mph 1020.6mb 61f
2:25 13 14 mph 1020.5mb 62f
2:10 11
mph
1020.5mb 61f
1:55 11 13 mph 1020.4mb 61f
1:40 10 11 mph 1020.4mb 61f
1:25 10 11 mph 1020.4mb 62f
1:10 11 13 mph 1020.6mb 62f
Mi 05/27 7:55 16 17 mph 1021.3mb 63f
7:40 15 17 mph 1021.4mb 63f
7:25 13 15 mph 1021.6mb 62f
7:10 13 16 mph 1021.2mb 63f
6:10 15 17 mph 1020.8mb 64f
5:40 20 22 mph 1020.7mb 63f
5:25 16 17 mph 1020.9mb 63f
5:10 10 13 mph 1021.2mb 63f
4:55 10 14 mph 1021.1mb 64f
4:40 6 9 mph 1021.1mb 65f
4:25 7 9 mph 1020.8mb 64f
4:10 9
mph
1020.9mb 64f
3:55 11 14 mph 1021mb 63f
3:40 10 11 mph 1021.2mb 63f
3:25 15 16 mph 1021.1mb 63f
3:10 15 17 mph 1021.2mb 63f
2:55 17 20 mph 1021.3mb 64f
2:40 14 15 mph 1021.5mb 62f
2:25 15
mph
1021.4mb 64f
2:10 14 15 mph 1021.5mb 63f
1:55 10 13 mph 1021.9mb 63f
1:40 10 11 mph 1022.1mb 63f
1:25 9 10 mph 1022.1mb 64f
1:10 9
mph
1022.3mb 62f
12:55 8 9 mph 1022.5mb 61f
12:40 9 10 mph 1022.6mb 62f
12:25 15 18 mph 1022.5mb 63f
12:10 7 10 mph 1022.8mb 61f
11:55 10 14 mph 1022.6mb 63f
11:40 8 13 mph 1022.6mb 64f
11:25 8 13 mph 1022.7mb 64f
11:10 8 9 mph 1022.8mb 62f
10:55 5 7 mph 1022.9mb 63f
10:40 2 5 mph 1022.7mb 65f
10:25 3 5 mph 1022.4mb 63f
10:10 5 6 mph 1022.5mb 62f
9:55 7 8 mph 1022.4mb 61f
9:40 5 7 mph 1022.3mb 62f
9:25 5 6 mph 1022.5mb 62f
9:10 7
mph
1022.6mb 61f
8:55 7
mph
1022.6mb 61f
8:40 9
mph
1022.7mb 60f
8:25 8 9 mph 1022.7mb 60f
8:10 8 9 mph 1022.6mb 61f
7:55 8 9 mph 1022.5mb 60f
7:40 10
mph
1022.4mb 60f
7:25 10 11 mph 1022.4mb 59f
7:10 10 11 mph 1022.4mb 60f
6:55 8
mph
1022.4mb 60f
6:40 7 8 mph 1022.3mb 60f
6:25 8
mph
1022.3mb 60f
6:10 9 10 mph 1022.3mb 60f
5:55 10 11 mph 1022.3mb 59f
5:40 15 16 mph 1021.9mb 62f
5:25 17
mph
1021.8mb 62f
5:10 17
mph
1021.8mb 61f
4:55 16
mph
1021.5mb 62f
4:40 11
mph
1021.8mb 62f
4:25 9 10 mph 1021.7mb 62f
4:10 9 10 mph 1021.6mb 61f
3:55 7
mph
1021.7mb 62f
3:40 7
mph
1021.7mb 60f
3:25 6
mph
1021.9mb 60f
3:10 7 8 mph 1021.9mb 60f
2:55 7 8 mph 1021.9mb 61f
2:40 8 9 mph 1021.9mb 61f
2:25 10 11 mph 1021.9mb 62f
2:10 10
mph
1021.9mb 62f
1:55 11
mph
1021.9mb 62f
1:40 11 13 mph 1022mb 62f
1:25 9 10 mph 1022.1mb 62f
1:10 8 9 mph 1022.2mb 62f
Di 05/26 7:55 13
mph
1021.3mb 63f
7:40 11 13 mph 1021.5mb 64f
7:25 11 13 mph 1021.5mb 65f
7:10 14 16 mph 1021.2mb 65f
6:55 16 18 mph 1021.4mb 64f
6:40 11 17 mph 1021.6mb 63f
6:25 8 9 mph 1021.7mb 62f
6:10 15 16 mph 1021.5mb 62f
5:55 17 20 mph 1021.3mb 63f
5:40 18 21 mph 1021.2mb 62f
5:25 15 16 mph 1021.3mb 62f
5:10 16
mph
1021.4mb 62f
4:55 17 18 mph 1021.3mb 62f
4:40 22 23 mph 1021.3mb 64f
4:25 23 25 mph 1021.1mb 64f
4:10 22 23 mph 1021.2mb 64f
3:55 21 23 mph 1021.2mb 63f
3:40 21
mph
1021.3mb 63f
3:25 18
mph
1021.6mb 63f
3:10 15 16 mph 1022.3mb 62f
2:55 10 11 mph 1022.3mb 60f
1:25 6 8 mph 1022.7mb 64f
1:10 7 8 mph 1022.6mb 62f
12:55 9
mph
1022.5mb 64f
12:40 8 10 mph 1022.6mb 63f
12:25 6 8 mph 1022.8mb 62f
12:10 13 15 mph 1022.5mb 61f
11:55 11 13 mph 1022.6mb 60f
11:40 11 13 mph 1022.8mb 60f
11:25 8 9 mph 1023mb 60f
11:10 7 8 mph 1023mb 60f
10:55 11 14 mph 1022.7mb 60f
10:40 11 14 mph 1022.8mb 60f
10:25 10 14 mph 1023mb 61f
10:10 3 8 mph 1023mb 62f
9:55 2 5 mph 1023.1mb 61f
9:40 2 3 mph 1023.1mb 60f
9:25 8 10 mph 1023mb 58f
9:10 9 11 mph 1022.9mb 57f
8:55 8 10 mph 1023mb 57f
8:40 10 11 mph 1023.1mb 57f
8:25 6 7 mph 1023.1mb 57f
8:10 5 7 mph 1023.1mb 57f
7:55 9 10 mph 1023mb 56f
7:40 11 14 mph 1023.1mb 57f
7:25 9 11 mph 1023.1mb 56f
7:10 8 10 mph 1023.1mb 56f
6:55 7 8 mph 1022.9mb 56f
6:40 10 13 mph 1022.8mb 57f
6:25 14 15 mph 1022.6mb 58f
6:10 17 18 mph 1022.5mb 58f
5:55 10 13 mph 1022.6mb 56f
5:40 13 20 mph 1022.3mb 59f
5:25 9 10 mph 1022.3mb 58f
5:10 11 13 mph 1022.4mb 58f
4:55 13
mph
1022.2mb 58f
4:40 14 15 mph 1022.1mb 59f
4:25 15
mph
1022.1mb 59f
4:10 16 17 mph 1022mb 61f
3:55 20
mph
1021.8mb 59f
3:40 18 21 mph 1022.1mb 59f
3:25 16 18 mph 1022.1mb 59f
3:10 16 18 mph 1022.2mb 59f
2:55 11 14 mph 1022.4mb 60f
2:40 10 11 mph 1022.4mb 60f
2:25 9 11 mph 1022.4mb 59f
2:10 18 21 mph 1021.9mb 60f
1:55 20 23 mph 1021.8mb 61f
1:40 16 21 mph 1021.8mb 60f
1:25 15 16 mph 1021.9mb 60f
1:10 10 15 mph 1022.3mb 60f
Mo 05/25 7:55 8 11 mph 1022.4mb 62f
7:40 8 9 mph 1022.5mb 62f
7:25 8 11 mph 1022.4mb 61f
7:10 3 5 mph 1022.5mb 60f
6:55 3 5 mph 1022.5mb 58f
6:40 6
mph
1022.5mb 58f
6:25 6 7 mph 1022.6mb 57f
6:10 6 7 mph 1022.6mb 57f
5:55 6 7 mph 1022.5mb 57f
5:40 6 7 mph 1022.5mb 57f
5:25 5 7 mph 1022.6mb 57f
5:10 6 8 mph 1022.8mb 59f
4:55 9 14 mph 1022.5mb 58f
4:40 3 5 mph 1022.9mb 58f
4:25 6 7 mph 1022.7mb 58f
4:10 2 6 mph 1022.9mb 60f
3:55 2 3 mph 1023.1mb 60f
3:40 5 7 mph 1023.3mb 58f
3:25 3 6 mph 1023.2mb 57f
3:10 2 6 mph 1023.4mb 58f
2:55 11 13 mph 1023.1mb 57f
2:40 11 13 mph 1023.1mb 58f
2:25 13 15 mph 1023.1mb 58f
2:10 13 15 mph 1023.6mb 58f
1:55 11 13 mph 1023.6mb 58f
1:40 13 14 mph 1023.7mb 59f
1:25 10 11 mph 1024.1mb 58f
1:10 10
mph
1024.3mb 58f
12:55 10 11 mph 1024.6mb 58f
12:40 10 11 mph 1024.7mb 57f
12:25 11 13 mph 1024.7mb 57f
12:10 10
mph
1024.7mb 57f
11:55 10 11 mph 1024.7mb 57f
11:40 8 9 mph 1024.6mb 58f
11:25 10 11 mph 1024.6mb 57f
11:10 7
mph
1024.8mb 58f
10:55 6 7 mph 1024.9mb 60f
10:40 2 3 mph 1024.9mb 59f
10:25 3 5 mph 1025.1mb 57f
10:10 5 6 mph 1025mb 58f
9:55 5 6 mph 1025mb 59f
9:40 5
mph
1025.1mb 61f
9:25 5
mph
1025.1mb 60f
9:10 3 5 mph 1025.2mb 59f
8:55 3
mph
1025.3mb 59f
8:40 5 6 mph 1025.3mb 57f
8:25 3 5 mph 1025.3mb 57f
8:10 3 5 mph 1025.1mb 56f
7:55 5 6 mph 1025.2mb 56f
7:40 5 6 mph 1025mb 56f
7:25 3 5 mph 1025.1mb 56f
7:10 3
mph
1025mb 55f
6:55 6 7 mph 1025.1mb 55f
6:40 6
mph
1025.1mb 55f
6:25 6 7 mph 1025mb 55f
6:10 6 7 mph 1024.7mb 55f
5:55 6 7 mph 1024.7mb 55f
5:40 7
mph
1024.7mb 55f
5:25 7
mph
1024.7mb 54f
5:10 7
mph
1024.7mb 54f
4:55 7 8 mph 1024.3mb 54f
4:40 6 7 mph 1024.1mb 54f
4:25 7 8 mph 1024mb 54f
4:10 8 9 mph 1024mb 54f
3:55 8
mph
1023.9mb 55f
3:40 6 7 mph 1023.9mb 55f
3:25 6 7 mph 1023.8mb 55f
3:10 6
mph
1023.9mb 55f
2:55 6 7 mph 1023.9mb 56f
2:40 7
mph
1024mb 56f
2:10 5 6 mph 1024.1mb 56f
1:55 3 5 mph 1024.2mb 56f
1:40 7
mph
1024.2mb 56f
1:25 7
mph
1024.2mb 57f
1:10 7 8 mph 1024.2mb 58f
So 05/24 7:55 11 13 mph 1024mb 61f
7:40 11 13 mph 1023.9mb 61f
7:25 9 10 mph 1023.8mb 60f
7:10 7 8 mph 1023.8mb 60f
6:55 10 13 mph 1023.9mb 60f
6:40 9 11 mph 1023.8mb 60f
6:25 10 13 mph 1023.6mb 60f
6:10 13 16 mph 1023.6mb 60f
5:55 16 18 mph 1023.2mb 60f
5:40 16 17 mph 1023.2mb 59f
5:25 10 14 mph 1023.4mb 57f
5:10 24 25 mph 1023mb 60f
4:55 24 25 mph 1023mb 60f
4:40 21 22 mph 1023.4mb 60f
4:25 20 21 mph 1023.3mb 59f
4:10 20 21 mph 1023.4mb 60f
3:55 14 16 mph 1023.6mb 58f
3:40 11 14 mph 1023.8mb 61f